createdAt,value
2016-11-30T00:00:48.638Z,0
2016-11-30T00:01:49.258Z,0
2016-11-30T00:02:49.942Z,0
2016-11-30T00:03:50.634Z,0
2016-11-30T00:04:51.269Z,0
2016-11-30T00:05:51.876Z,0
2016-11-30T00:06:52.582Z,0
2016-11-30T00:07:53.253Z,0
2016-11-30T00:08:53.845Z,0
2016-11-30T00:09:54.501Z,0
2016-11-30T00:10:55.147Z,0
2016-11-30T00:11:55.793Z,0
2016-11-30T00:12:56.422Z,0
2016-11-30T00:13:57.069Z,0
2016-11-30T00:14:57.735Z,0
2016-11-30T00:15:58.356Z,0
2016-11-30T00:16:58.996Z,0
2016-11-30T00:17:59.644Z,0
2016-11-30T00:19:00.278Z,0
2016-11-30T00:20:00.905Z,0
2016-11-30T00:21:01.544Z,0
2016-11-30T00:22:02.174Z,0
2016-11-30T00:23:02.818Z,0
2016-11-30T00:24:03.599Z,0
2016-11-30T00:25:04.247Z,0
2016-11-30T00:26:04.930Z,0
2016-11-30T00:27:05.531Z,0
2016-11-30T00:28:06.175Z,0
2016-11-30T00:29:06.835Z,0
2016-11-30T00:30:07.537Z,0
2016-11-30T00:31:08.161Z,0
2016-11-30T00:32:08.793Z,0
2016-11-30T00:33:09.468Z,0
2016-11-30T00:34:10.105Z,0
2016-11-30T00:35:10.763Z,0
2016-11-30T00:36:11.398Z,0
2016-11-30T00:37:12.037Z,0
2016-11-30T00:38:12.704Z,0
2016-11-30T00:39:13.327Z,0
2016-11-30T00:40:14.002Z,0
2016-11-30T00:41:14.634Z,0
2016-11-30T00:42:15.300Z,0
2016-11-30T00:43:15.972Z,0
2016-11-30T00:44:16.634Z,0
2016-11-30T00:45:17.317Z,0
2016-11-30T00:46:17.983Z,0
2016-11-30T00:47:18.654Z,0
2016-11-30T00:48:19.309Z,0
2016-11-30T00:49:19.953Z,0
2016-11-30T00:50:20.625Z,0
2016-11-30T00:51:21.252Z,0
2016-11-30T00:52:21.895Z,0
2016-11-30T00:53:22.547Z,0
2016-11-30T00:54:23.209Z,0
2016-11-30T00:55:23.851Z,0
2016-11-30T00:56:24.544Z,0
2016-11-30T00:57:25.155Z,0
2016-11-30T00:58:25.875Z,0
2016-11-30T00:59:26.523Z,0
2016-11-30T01:00:27.176Z,0
2016-11-30T01:01:27.811Z,0
2016-11-30T01:02:28.458Z,0
2016-11-30T01:03:29.079Z,0
2016-11-30T01:04:29.697Z,0
2016-11-30T01:05:30.303Z,0
2016-11-30T01:06:30.963Z,0
2016-11-30T01:07:31.625Z,0
2016-11-30T01:08:32.265Z,0
2016-11-30T01:09:32.905Z,0
2016-11-30T01:10:33.530Z,0
2016-11-30T01:11:34.190Z,0
2016-11-30T01:12:34.816Z,0
2016-11-30T01:13:35.464Z,0
2016-11-30T01:14:36.126Z,0
2016-11-30T01:15:36.797Z,0
2016-11-30T01:16:37.489Z,0
2016-11-30T01:17:38.171Z,0
2016-11-30T01:18:38.801Z,0
2016-11-30T01:19:39.424Z,0
2016-11-30T01:20:40.092Z,0
2016-11-30T01:21:40.740Z,0
2016-11-30T01:22:41.468Z,0
2016-11-30T01:23:42.062Z,0
2016-11-30T01:24:42.701Z,0
2016-11-30T01:25:43.351Z,0
2016-11-30T01:26:43.983Z,0
2016-11-30T01:27:44.620Z,0
2016-11-30T01:28:45.296Z,0
2016-11-30T01:29:45.903Z,0
2016-11-30T01:30:46.546Z,0
2016-11-30T01:31:47.188Z,0
2016-11-30T01:32:47.858Z,0
2016-11-30T01:33:48.501Z,0
2016-11-30T01:34:49.205Z,0
2016-11-30T01:35:49.832Z,0
2016-11-30T01:36:50.499Z,0
2016-11-30T01:37:51.160Z,0
2016-11-30T01:38:51.808Z,0
2016-11-30T01:39:52.466Z,0
2016-11-30T01:40:53.157Z,0
2016-11-30T01:41:53.815Z,0
2016-11-30T01:42:54.485Z,0
2016-11-30T01:43:55.123Z,0
2016-11-30T01:44:55.777Z,0
2016-11-30T01:45:56.469Z,0
2016-11-30T01:46:57.184Z,0
2016-11-30T01:47:57.870Z,0
2016-11-30T01:48:58.469Z,0
2016-11-30T01:49:59.111Z,0
2016-11-30T01:50:59.833Z,0
2016-11-30T01:52:00.398Z,0
2016-11-30T01:53:01.044Z,0
2016-11-30T01:54:01.744Z,0
2016-11-30T01:55:02.369Z,0
2016-11-30T01:56:03.011Z,0
2016-11-30T01:57:03.732Z,0
2016-11-30T01:58:04.316Z,0
2016-11-30T01:59:04.949Z,0
2016-11-30T02:00:05.618Z,0
2016-11-30T02:01:06.305Z,0
2016-11-30T02:02:06.920Z,0
2016-11-30T02:03:07.565Z,0
2016-11-30T02:04:08.228Z,0
2016-11-30T02:05:08.889Z,0
2016-11-30T02:06:09.539Z,0
2016-11-30T02:07:10.200Z,0
2016-11-30T02:08:10.833Z,0
2016-11-30T02:09:11.479Z,0
2016-11-30T02:10:12.154Z,0
2016-11-30T02:11:12.802Z,0
2016-11-30T02:12:13.433Z,0
2016-11-30T02:13:14.106Z,0
2016-11-30T02:14:14.712Z,0
2016-11-30T02:15:15.361Z,0
2016-11-30T02:16:16.002Z,0
2016-11-30T02:17:16.635Z,0
2016-11-30T02:18:17.282Z,0
2016-11-30T02:19:17.913Z,0
2016-11-30T02:20:18.536Z,0
2016-11-30T02:21:19.174Z,0
2016-11-30T02:22:19.845Z,0
2016-11-30T02:23:20.501Z,0
2016-11-30T02:24:21.148Z,0
2016-11-30T02:25:21.846Z,0
2016-11-30T02:26:22.483Z,0
2016-11-30T02:27:23.158Z,0
2016-11-30T02:28:23.822Z,0
2016-11-30T02:29:24.474Z,0
2016-11-30T02:30:25.106Z,0
2016-11-30T02:31:25.752Z,0
2016-11-30T02:32:26.411Z,0
2016-11-30T02:33:27.066Z,0
2016-11-30T02:34:27.696Z,0
2016-11-30T02:35:28.337Z,0
2016-11-30T02:36:28.966Z,0
2016-11-30T02:37:29.613Z,0
2016-11-30T02:38:30.256Z,0
2016-11-30T02:39:30.938Z,0
2016-11-30T02:40:31.591Z,0
2016-11-30T02:41:32.197Z,0
2016-11-30T02:42:32.864Z,0
2016-11-30T02:43:33.500Z,0
2016-11-30T02:44:34.152Z,0
2016-11-30T02:45:34.797Z,0
2016-11-30T02:46:35.425Z,0
2016-11-30T02:47:36.067Z,0
2016-11-30T02:48:36.722Z,0
2016-11-30T02:49:37.372Z,0
2016-11-30T02:50:38.031Z,0
2016-11-30T02:51:38.675Z,0
2016-11-30T02:52:39.315Z,0
2016-11-30T02:53:39.986Z,0
2016-11-30T02:54:40.644Z,0
2016-11-30T02:55:41.273Z,0
2016-11-30T02:56:41.912Z,0
2016-11-30T02:57:42.561Z,0
2016-11-30T02:58:43.202Z,0
2016-11-30T02:59:43.850Z,0
2016-11-30T03:00:44.504Z,0
2016-11-30T03:01:45.153Z,0
2016-11-30T03:02:45.813Z,0
2016-11-30T03:03:46.463Z,0
2016-11-30T03:04:47.132Z,0
2016-11-30T03:05:47.779Z,0
2016-11-30T03:06:48.454Z,0
2016-11-30T03:07:49.075Z,0
2016-11-30T03:08:49.746Z,0
2016-11-30T03:09:50.393Z,0
2016-11-30T03:10:51.029Z,0
2016-11-30T03:11:51.660Z,0
2016-11-30T03:12:52.336Z,0
2016-11-30T03:13:52.986Z,0
2016-11-30T03:14:53.613Z,0
2016-11-30T03:15:54.247Z,0
2016-11-30T03:16:54.893Z,0
2016-11-30T03:17:55.588Z,0
2016-11-30T03:18:56.201Z,0
2016-11-30T03:19:56.825Z,0
2016-11-30T03:20:57.504Z,0
2016-11-30T03:21:58.158Z,0
2016-11-30T03:22:58.845Z,0
2016-11-30T03:23:59.468Z,0
2016-11-30T03:25:00.128Z,0
2016-11-30T03:26:00.760Z,0
2016-11-30T03:27:01.408Z,0
2016-11-30T03:28:02.062Z,0
2016-11-30T03:29:02.697Z,0
2016-11-30T03:30:03.330Z,0
2016-11-30T03:31:04.012Z,0
2016-11-30T03:32:04.663Z,0
2016-11-30T03:33:05.299Z,0
2016-11-30T03:34:05.952Z,0
2016-11-30T03:35:06.568Z,0
2016-11-30T03:36:07.218Z,0
2016-11-30T03:37:07.850Z,0
2016-11-30T03:38:08.494Z,0
2016-11-30T03:39:09.189Z,0
2016-11-30T03:40:09.803Z,0
2016-11-30T03:41:10.495Z,0
2016-11-30T03:42:11.107Z,0
2016-11-30T03:43:11.755Z,0
2016-11-30T03:44:12.524Z,0
2016-11-30T03:45:13.184Z,0
2016-11-30T03:46:13.847Z,0
2016-11-30T03:47:14.438Z,0
2016-11-30T03:48:15.087Z,0
2016-11-30T03:49:15.743Z,0
2016-11-30T03:50:16.411Z,0
2016-11-30T03:51:17.073Z,0
2016-11-30T03:52:17.725Z,0
2016-11-30T03:53:18.365Z,0
2016-11-30T03:54:19.056Z,0
2016-11-30T03:55:19.663Z,0
2016-11-30T03:56:20.305Z,0
2016-11-30T03:57:20.962Z,0
2016-11-30T03:58:21.593Z,0
2016-11-30T03:59:22.253Z,0
2016-11-30T04:00:22.904Z,0
2016-11-30T04:01:23.561Z,0
2016-11-30T04:02:24.204Z,0
2016-11-30T04:03:24.842Z,0
2016-11-30T04:04:25.484Z,0
2016-11-30T04:05:26.129Z,0
2016-11-30T04:06:26.767Z,0
2016-11-30T04:07:27.457Z,0
2016-11-30T04:08:28.135Z,0
2016-11-30T04:09:28.715Z,0
2016-11-30T04:10:29.356Z,0
2016-11-30T04:11:30.011Z,0
2016-11-30T04:12:30.706Z,0
2016-11-30T04:13:31.297Z,0
2016-11-30T04:14:31.937Z,0
2016-11-30T04:15:32.586Z,0
2016-11-30T04:16:33.351Z,0
2016-11-30T04:17:33.948Z,0
2016-11-30T04:18:34.598Z,0
2016-11-30T04:19:35.263Z,0
2016-11-30T04:20:35.890Z,0
2016-11-30T04:21:36.529Z,0
2016-11-30T04:22:37.169Z,0
2016-11-30T04:23:37.822Z,0
2016-11-30T04:24:38.478Z,0
2016-11-30T04:25:39.140Z,0
2016-11-30T04:26:39.839Z,0
2016-11-30T04:27:40.433Z,0
2016-11-30T04:28:41.072Z,0
2016-11-30T04:29:41.724Z,0
2016-11-30T04:30:42.356Z,0
2016-11-30T04:31:43.014Z,0
2016-11-30T04:32:43.647Z,0
2016-11-30T04:33:44.277Z,0
2016-11-30T04:34:44.909Z,0
2016-11-30T04:35:45.542Z,0
2016-11-30T04:36:46.190Z,0
2016-11-30T04:37:46.865Z,0
2016-11-30T04:38:47.504Z,0
2016-11-30T04:39:48.152Z,0
2016-11-30T04:40:48.773Z,0
2016-11-30T04:41:49.432Z,0
2016-11-30T04:42:50.070Z,0
2016-11-30T04:43:50.701Z,0
2016-11-30T04:44:51.356Z,0
2016-11-30T04:45:52.025Z,0
2016-11-30T04:46:52.630Z,0
2016-11-30T04:47:53.264Z,0
2016-11-30T04:48:53.977Z,0
2016-11-30T04:49:54.577Z,0
2016-11-30T04:50:55.237Z,0
2016-11-30T04:51:55.889Z,0
2016-11-30T04:52:56.516Z,0
2016-11-30T04:53:57.149Z,0
2016-11-30T04:54:57.781Z,0
2016-11-30T04:55:58.427Z,0
2016-11-30T04:56:59.063Z,0
2016-11-30T04:57:59.709Z,0
2016-11-30T04:59:00.341Z,0
2016-11-30T05:00:01.015Z,0
2016-11-30T05:01:01.639Z,0
2016-11-30T05:02:02.280Z,0
2016-11-30T05:03:02.949Z,0
2016-11-30T05:04:03.578Z,0
2016-11-30T05:05:04.256Z,0
2016-11-30T05:06:04.910Z,0
2016-11-30T05:07:05.603Z,0
2016-11-30T05:08:06.215Z,0
2016-11-30T05:09:06.829Z,0
2016-11-30T05:10:07.503Z,0
2016-11-30T05:11:08.103Z,0
2016-11-30T05:12:08.727Z,0
2016-11-30T05:13:09.478Z,0
2016-11-30T05:14:10.089Z,0
2016-11-30T05:15:10.762Z,0
2016-11-30T05:16:11.383Z,0
2016-11-30T05:17:12.029Z,0
2016-11-30T05:18:12.686Z,0
2016-11-30T05:19:13.332Z,0
2016-11-30T05:20:14.031Z,0
2016-11-30T05:21:14.648Z,0
2016-11-30T05:22:15.305Z,0
2016-11-30T05:23:16.039Z,0
2016-11-30T05:24:16.685Z,0
2016-11-30T05:25:17.331Z,0
2016-11-30T05:26:17.986Z,0
2016-11-30T05:27:18.619Z,0
2016-11-30T05:28:19.257Z,0
2016-11-30T05:29:19.925Z,0
2016-11-30T05:30:20.622Z,0
2016-11-30T05:31:21.207Z,0
2016-11-30T05:32:21.847Z,0
2016-11-30T05:33:22.467Z,0
2016-11-30T05:34:23.084Z,0
2016-11-30T05:35:23.756Z,0
2016-11-30T05:36:24.365Z,0
2016-11-30T05:37:25.021Z,0
2016-11-30T05:38:25.646Z,0
2016-11-30T05:39:26.294Z,0
2016-11-30T05:40:26.960Z,0
2016-11-30T05:41:27.611Z,0
2016-11-30T05:42:28.262Z,0
2016-11-30T05:43:28.901Z,0
2016-11-30T05:44:29.562Z,0
2016-11-30T05:45:30.198Z,0
2016-11-30T05:46:30.855Z,0
2016-11-30T05:47:31.479Z,0
2016-11-30T05:48:32.146Z,0
2016-11-30T05:49:32.778Z,0
2016-11-30T05:50:33.401Z,0
2016-11-30T05:51:34.070Z,0
2016-11-30T05:52:34.665Z,0
2016-11-30T05:53:35.295Z,0
2016-11-30T05:54:35.947Z,0
2016-11-30T05:55:36.637Z,0
2016-11-30T05:56:37.287Z,0
2016-11-30T05:57:37.935Z,0
2016-11-30T05:58:38.605Z,0
2016-11-30T05:59:39.222Z,0
2016-11-30T06:00:39.893Z,0
2016-11-30T06:01:40.540Z,0
2016-11-30T06:02:41.183Z,0
2016-11-30T06:03:41.814Z,0
2016-11-30T06:04:42.477Z,0
2016-11-30T06:05:43.113Z,0
2016-11-30T06:06:43.748Z,0
2016-11-30T06:07:44.384Z,0
2016-11-30T06:08:45.012Z,0
2016-11-30T06:09:45.638Z,0
2016-11-30T06:10:46.317Z,0
2016-11-30T06:11:47.005Z,0
2016-11-30T06:12:47.595Z,0
2016-11-30T06:13:48.233Z,0
2016-11-30T06:14:48.883Z,0
2016-11-30T06:15:49.511Z,0
2016-11-30T06:16:50.158Z,0
2016-11-30T06:17:50.799Z,0
2016-11-30T06:18:51.475Z,0
2016-11-30T06:19:52.109Z,0
2016-11-30T06:20:52.757Z,0
2016-11-30T06:21:53.414Z,0
2016-11-30T06:22:54.090Z,0
2016-11-30T06:23:54.744Z,0
2016-11-30T06:24:55.404Z,0
2016-11-30T06:25:56.003Z,0
2016-11-30T06:26:56.650Z,0
2016-11-30T06:27:57.289Z,0
2016-11-30T06:28:57.925Z,0
2016-11-30T06:29:58.565Z,0
2016-11-30T06:30:59.195Z,0
2016-11-30T06:31:59.831Z,0
2016-11-30T06:33:00.495Z,0
2016-11-30T06:34:01.121Z,0
2016-11-30T06:35:01.868Z,0
2016-11-30T06:36:02.475Z,0
2016-11-30T06:37:03.240Z,0
2016-11-30T06:38:03.893Z,0
2016-11-30T06:39:04.538Z,0
2016-11-30T06:40:05.181Z,0
2016-11-30T06:41:05.842Z,0
2016-11-30T06:42:06.477Z,0
2016-11-30T06:43:07.131Z,4
2016-11-30T06:44:07.771Z,4
2016-11-30T06:45:08.393Z,4
2016-11-30T06:46:09.076Z,4
2016-11-30T06:47:09.686Z,4
2016-11-30T06:48:10.328Z,4
2016-11-30T06:49:10.957Z,12
2016-11-30T06:50:11.599Z,12
2016-11-30T06:51:12.256Z,12
2016-11-30T06:52:12.882Z,12
2016-11-30T06:53:13.508Z,20
2016-11-30T06:54:14.140Z,16
2016-11-30T06:55:14.802Z,16
2016-11-30T06:56:15.490Z,20
2016-11-30T06:57:16.141Z,20
2016-11-30T06:58:16.758Z,24
2016-11-30T06:59:17.380Z,16
2016-11-30T07:00:18.001Z,24
2016-11-30T07:01:18.637Z,32
2016-11-30T07:02:19.286Z,40
2016-11-30T07:03:19.941Z,28
2016-11-30T07:04:20.618Z,32
2016-11-30T07:05:21.295Z,36
2016-11-30T07:06:21.930Z,28
2016-11-30T07:07:22.713Z,28
2016-11-30T07:08:23.305Z,28
2016-11-30T07:09:23.971Z,24
2016-11-30T07:10:24.651Z,28
2016-11-30T07:11:25.316Z,24
2016-11-30T07:12:25.979Z,20
2016-11-30T07:13:26.689Z,28
2016-11-30T07:14:27.333Z,32
2016-11-30T07:15:27.986Z,32
2016-11-30T07:16:28.686Z,40
2016-11-30T07:17:29.316Z,52
2016-11-30T07:18:29.984Z,64
2016-11-30T07:19:30.633Z,80
2016-11-30T07:20:31.320Z,108
2016-11-30T07:21:31.991Z,140
2016-11-30T07:22:32.631Z,152
2016-11-30T07:23:33.258Z,156
2016-11-30T07:24:33.902Z,168
2016-11-30T07:25:34.640Z,148
2016-11-30T07:26:35.277Z,188
2016-11-30T07:27:35.908Z,188
2016-11-30T07:28:36.592Z,160
2016-11-30T07:29:37.212Z,228
2016-11-30T07:30:37.853Z,268
2016-11-30T07:31:38.448Z,284
2016-11-30T07:32:39.075Z,292
2016-11-30T07:33:39.719Z,260
2016-11-30T07:34:40.350Z,272
2016-11-30T07:35:41.017Z,336
2016-11-30T07:36:41.640Z,432
2016-11-30T07:37:42.297Z,416
2016-11-30T07:38:42.945Z,468
2016-11-30T07:39:43.596Z,536
2016-11-30T07:40:44.270Z,572
2016-11-30T07:41:44.878Z,608
2016-11-30T07:42:45.536Z,680
2016-11-30T07:43:46.181Z,684
2016-11-30T07:44:46.827Z,712
2016-11-30T07:45:47.536Z,744
2016-11-30T07:46:48.134Z,768
2016-11-30T07:47:48.763Z,800
2016-11-30T07:48:49.401Z,848
2016-11-30T07:49:50.062Z,900
2016-11-30T07:50:50.759Z,952
2016-11-30T07:51:51.413Z,1000
2016-11-30T07:52:52.074Z,1040
2016-11-30T07:53:52.724Z,1072
2016-11-30T07:54:53.386Z,1112
2016-11-30T07:55:54.015Z,1148
2016-11-30T07:56:54.694Z,1152
2016-11-30T07:57:55.342Z,1172
2016-11-30T07:58:55.999Z,1172
2016-11-30T07:59:56.631Z,1064
2016-11-30T08:00:57.296Z,1136
2016-11-30T08:01:57.941Z,1164
2016-11-30T08:02:58.601Z,1208
2016-11-30T08:03:59.304Z,1284
2016-11-30T08:04:59.988Z,1300
2016-11-30T08:06:00.665Z,1388
2016-11-30T08:07:01.283Z,1508
2016-11-30T08:08:02.003Z,1532
2016-11-30T08:09:02.699Z,1340
2016-11-30T08:10:03.311Z,1436
2016-11-30T08:11:03.948Z,1596
2016-11-30T08:12:04.623Z,1536
2016-11-30T08:13:05.269Z,1352
2016-11-30T08:14:06.037Z,1280
2016-11-30T08:15:06.635Z,1256
2016-11-30T08:16:07.306Z,1372
2016-11-30T08:17:08.013Z,1544
2016-11-30T08:18:08.721Z,1696
2016-11-30T08:19:09.379Z,1772
2016-11-30T08:20:10.107Z,1736
2016-11-30T08:21:10.763Z,1684
2016-11-30T08:22:11.461Z,1640
2016-11-30T08:23:12.212Z,1528
2016-11-30T08:24:12.901Z,1488
2016-11-30T08:25:13.539Z,1568
2016-11-30T08:26:14.203Z,1584
2016-11-30T08:27:14.864Z,1524
2016-11-30T08:28:15.744Z,1576
2016-11-30T08:29:16.340Z,1552
2016-11-30T08:30:17.017Z,1564
2016-11-30T08:31:17.697Z,1780
2016-11-30T08:32:18.445Z,1856
2016-11-30T08:33:19.169Z,1984
2016-11-30T08:34:19.870Z,2080
2016-11-30T08:35:20.591Z,2164
2016-11-30T08:36:21.314Z,2216
2016-11-30T08:37:21.981Z,2196
2016-11-30T08:38:22.639Z,2212
2016-11-30T08:39:23.326Z,2192
2016-11-30T08:40:24.001Z,2092
2016-11-30T08:41:24.653Z,2012
2016-11-30T08:42:25.344Z,2008
2016-11-30T08:43:26.043Z,2020
2016-11-30T08:44:26.704Z,2028
2016-11-30T08:45:27.390Z,2024
2016-11-30T08:46:28.024Z,1980
2016-11-30T08:47:28.658Z,1972
2016-11-30T08:48:29.473Z,1928
2016-11-30T08:49:30.199Z,1864
2016-11-30T08:50:30.829Z,1896
2016-11-30T08:51:31.448Z,1900
2016-11-30T08:52:32.148Z,2064
2016-11-30T08:53:32.864Z,2120
2016-11-30T08:54:33.576Z,2144
2016-11-30T08:55:34.270Z,2260
2016-11-30T08:56:34.996Z,2064
2016-11-30T08:57:35.697Z,1972
2016-11-30T08:58:36.350Z,1732
2016-11-30T08:59:37.135Z,1804
2016-11-30T09:00:37.732Z,1852
2016-11-30T09:01:38.442Z,1880
2016-11-30T09:02:39.156Z,1984
2016-11-30T09:03:39.938Z,2100
2016-11-30T09:04:40.493Z,1756
2016-11-30T09:05:41.213Z,1884
2016-11-30T09:06:41.890Z,1840
2016-11-30T09:07:42.616Z,1712
2016-11-30T09:08:43.249Z,1732
2016-11-30T09:09:43.937Z,1896
2016-11-30T09:10:44.634Z,2148
2016-11-30T09:11:45.331Z,2196
2016-11-30T09:12:46.079Z,2032
2016-11-30T09:13:46.740Z,2152
2016-11-30T09:14:47.434Z,1884
2016-11-30T09:15:48.066Z,1872
2016-11-30T09:16:48.752Z,2032
2016-11-30T09:17:49.451Z,2144
2016-11-30T09:18:50.146Z,2024
2016-11-30T09:19:50.804Z,2308
2016-11-30T09:20:51.541Z,2080
2016-11-30T09:21:52.235Z,1936
2016-11-30T09:22:52.861Z,2316
2016-11-30T09:23:53.566Z,2284
2016-11-30T09:24:54.272Z,2232
2016-11-30T09:25:54.946Z,2268
2016-11-30T09:26:55.757Z,1840
2016-11-30T09:27:56.401Z,2136
2016-11-30T09:28:57.243Z,1960
2016-11-30T09:29:57.859Z,1900
2016-11-30T09:30:58.528Z,1780
2016-11-30T09:31:59.230Z,1852
2016-11-30T09:32:59.946Z,1700
2016-11-30T09:34:00.644Z,1404
2016-11-30T09:35:01.417Z,1484
2016-11-30T09:36:02.183Z,1360
2016-11-30T09:37:02.876Z,1404
2016-11-30T09:38:03.587Z,1572
2016-11-30T09:39:04.316Z,1632
2016-11-30T09:40:05.030Z,1784
2016-11-30T09:41:05.697Z,1748
2016-11-30T09:42:06.437Z,1884
2016-11-30T09:43:07.095Z,1888
2016-11-30T09:44:07.744Z,1848
2016-11-30T09:45:08.493Z,1944
2016-11-30T09:46:09.229Z,1724
2016-11-30T09:47:09.935Z,1404
2016-11-30T09:48:10.617Z,1684
2016-11-30T09:49:11.300Z,2284
2016-11-30T09:50:11.958Z,2408
2016-11-30T09:51:12.642Z,2924
2016-11-30T09:52:13.382Z,2700
2016-11-30T09:53:14.100Z,3212
2016-11-30T09:54:14.777Z,2876
2016-11-30T09:55:15.489Z,2888
2016-11-30T09:56:16.195Z,3112
2016-11-30T09:57:16.867Z,3344
2016-11-30T09:58:17.550Z,2948
2016-11-30T09:59:18.272Z,3108
2016-11-30T10:00:19.006Z,2608
2016-11-30T10:01:19.743Z,2888
2016-11-30T10:02:20.324Z,2572
2016-11-30T10:03:21.090Z,2976
2016-11-30T10:04:21.960Z,2652
2016-11-30T10:05:22.617Z,3064
2016-11-30T10:06:23.349Z,2852
2016-11-30T10:07:23.993Z,3276
2016-11-30T10:08:24.719Z,3184
2016-11-30T10:09:25.474Z,3508
2016-11-30T10:10:26.165Z,2848
2016-11-30T10:11:26.874Z,2876
2016-11-30T10:12:27.478Z,3568
2016-11-30T10:13:28.124Z,3216
2016-11-30T10:14:28.827Z,3004
2016-11-30T10:15:29.603Z,2796
2016-11-30T10:16:30.355Z,2976
2016-11-30T10:17:31.003Z,2740
2016-11-30T10:18:31.726Z,2884
2016-11-30T10:19:32.421Z,2436
2016-11-30T10:20:33.136Z,2044
2016-11-30T10:21:33.808Z,2212
2016-11-30T10:22:34.616Z,1976
2016-11-30T10:23:35.219Z,2300
2016-11-30T10:24:35.898Z,2012
2016-11-30T10:25:36.652Z,2168
2016-11-30T10:26:37.221Z,1940
2016-11-30T10:27:37.951Z,1736
2016-11-30T10:28:38.758Z,1644
2016-11-30T10:29:39.399Z,1812
2016-11-30T10:30:40.135Z,2068
2016-11-30T10:31:40.880Z,1968
2016-11-30T10:32:41.533Z,1924
2016-11-30T10:33:42.207Z,1896
2016-11-30T10:34:42.876Z,1824
2016-11-30T10:35:43.549Z,1624
2016-11-30T10:36:44.251Z,1612
2016-11-30T10:37:44.950Z,1624
2016-11-30T10:38:45.693Z,1500
2016-11-30T10:39:46.421Z,1376
2016-11-30T10:40:47.094Z,1244
2016-11-30T10:41:47.720Z,1368
2016-11-30T10:42:48.405Z,1488
2016-11-30T10:43:49.183Z,1592
2016-11-30T10:44:49.960Z,1812
2016-11-30T10:45:50.640Z,2048
2016-11-30T10:46:51.232Z,2180
2016-11-30T10:47:51.950Z,1764
2016-11-30T10:48:52.652Z,1584
2016-11-30T10:49:53.352Z,1364
2016-11-30T10:50:54.003Z,1220
2016-11-30T10:51:54.730Z,1628
2016-11-30T10:52:55.404Z,1772
2016-11-30T10:53:56.100Z,1548
2016-11-30T10:54:56.804Z,1400
2016-11-30T10:55:57.508Z,1172
2016-11-30T10:56:58.231Z,1496
2016-11-30T10:57:58.943Z,1700
2016-11-30T10:58:59.674Z,1364
2016-11-30T11:00:00.401Z,1876
2016-11-30T11:01:01.137Z,2112
2016-11-30T11:02:01.789Z,2780
2016-11-30T11:03:02.438Z,2404
2016-11-30T11:04:03.078Z,2256
2016-11-30T11:05:03.739Z,2768
2016-11-30T11:06:04.392Z,2292
2016-11-30T11:07:05.057Z,2552
2016-11-30T11:08:05.710Z,2148
2016-11-30T11:09:06.347Z,2012
2016-11-30T11:10:07.017Z,1992
2016-11-30T11:11:07.675Z,1696
2016-11-30T11:12:08.358Z,1592
2016-11-30T11:13:09.009Z,1700
2016-11-30T11:14:09.662Z,1276
2016-11-30T11:15:10.287Z,1364
2016-11-30T11:16:10.943Z,1300
2016-11-30T11:17:11.593Z,1520
2016-11-30T11:18:12.219Z,1552
2016-11-30T11:19:12.861Z,1264
2016-11-30T11:20:13.567Z,1168
2016-11-30T11:21:14.207Z,1364
2016-11-30T11:22:14.833Z,1508
2016-11-30T11:23:15.490Z,1664
2016-11-30T11:24:16.150Z,1712
2016-11-30T11:25:16.837Z,1864
2016-11-30T11:26:17.529Z,2196
2016-11-30T11:27:18.139Z,2704
2016-11-30T11:28:18.815Z,1600
2016-11-30T11:29:19.436Z,1336
2016-11-30T11:30:20.098Z,1676
2016-11-30T11:31:20.752Z,1860
2016-11-30T11:32:21.428Z,1208
2016-11-30T11:33:22.067Z,1544
2016-11-30T11:34:22.703Z,1740
2016-11-30T11:35:23.381Z,1696
2016-11-30T11:36:24.037Z,1672
2016-11-30T11:37:24.698Z,1516
2016-11-30T11:38:25.369Z,1252
2016-11-30T11:39:26.038Z,1460
2016-11-30T11:40:26.691Z,1728
2016-11-30T11:41:27.421Z,1864
2016-11-30T11:42:28.054Z,1576
2016-11-30T11:43:28.722Z,1656
2016-11-30T11:44:29.400Z,1732
2016-11-30T11:45:30.024Z,2068
2016-11-30T11:46:30.678Z,1836
2016-11-30T11:47:31.351Z,2112
2016-11-30T11:48:31.997Z,2016
2016-11-30T11:49:32.670Z,2312
2016-11-30T11:50:33.305Z,2124
2016-11-30T11:51:33.984Z,1756
2016-11-30T11:52:34.661Z,1196
2016-11-30T11:53:35.346Z,1192
2016-11-30T11:54:36.041Z,864
2016-11-30T11:55:36.692Z,1220
2016-11-30T11:56:37.344Z,1472
2016-11-30T11:57:37.993Z,2056
2016-11-30T11:58:38.698Z,2300
2016-11-30T11:59:39.329Z,2284
2016-11-30T12:00:40.012Z,1868
2016-11-30T12:01:40.656Z,2168
2016-11-30T12:02:41.308Z,1520
2016-11-30T12:03:42.052Z,1460
2016-11-30T12:04:42.777Z,1208
2016-11-30T12:05:43.363Z,1248
2016-11-30T12:06:44.020Z,1116
2016-11-30T12:07:44.692Z,1764
2016-11-30T12:08:45.337Z,1296
2016-11-30T12:09:45.984Z,1584
2016-11-30T12:10:46.618Z,1168
2016-11-30T12:11:47.248Z,2300
2016-11-30T12:12:47.887Z,2720
2016-11-30T12:13:48.552Z,2668
2016-11-30T12:14:49.227Z,1948
2016-11-30T12:15:49.919Z,1868
2016-11-30T12:16:50.563Z,1636
2016-11-30T12:17:51.216Z,1928
2016-11-30T12:18:51.869Z,1972
2016-11-30T12:19:52.505Z,1716
2016-11-30T12:20:53.168Z,1620
2016-11-30T12:21:53.834Z,2052
2016-11-30T12:22:54.515Z,2128
2016-11-30T12:23:55.162Z,2012
2016-11-30T12:24:55.790Z,1696
2016-11-30T12:25:56.438Z,1992
2016-11-30T12:26:57.099Z,1720
2016-11-30T12:27:57.707Z,1520
2016-11-30T12:28:58.422Z,1916
2016-11-30T12:29:59.057Z,1860
2016-11-30T12:30:59.736Z,1984
2016-11-30T12:32:00.404Z,1908
2016-11-30T12:33:01.010Z,1780
2016-11-30T12:34:01.661Z,1984
2016-11-30T12:35:02.318Z,1620
2016-11-30T12:36:02.991Z,1772
2016-11-30T12:37:03.637Z,1536
2016-11-30T12:38:04.289Z,1732
2016-11-30T12:39:04.928Z,1772
2016-11-30T12:40:05.574Z,1620
2016-11-30T12:41:06.242Z,1800
2016-11-30T12:42:06.905Z,2428
2016-11-30T12:43:07.574Z,2456
2016-11-30T12:44:08.212Z,2460
2016-11-30T12:45:08.888Z,2396
2016-11-30T12:46:10.149Z,2248
2016-11-30T12:47:10.775Z,2220
2016-11-30T12:48:11.409Z,2096
2016-11-30T12:49:12.054Z,2168
2016-11-30T12:50:12.768Z,2540
2016-11-30T12:51:13.497Z,2428
2016-11-30T12:52:14.192Z,2360
2016-11-30T12:53:14.852Z,2168
2016-11-30T12:54:15.481Z,1800
2016-11-30T12:55:16.228Z,1756
2016-11-30T12:56:16.849Z,1960
2016-11-30T12:57:17.489Z,2184
2016-11-30T12:58:18.132Z,1972
2016-11-30T12:59:18.911Z,1828
2016-11-30T13:00:19.576Z,1772
2016-11-30T13:01:20.235Z,1624
2016-11-30T13:02:21.043Z,1624
2016-11-30T13:03:21.796Z,1692
2016-11-30T13:04:22.599Z,1812
2016-11-30T13:05:23.256Z,1456
2016-11-30T13:06:23.912Z,1624
2016-11-30T13:07:24.552Z,1360
2016-11-30T13:08:25.339Z,1492
2016-11-30T13:09:25.980Z,1552
2016-11-30T13:10:26.677Z,1392
2016-11-30T13:11:27.441Z,1668
2016-11-30T13:12:28.335Z,1588
2016-11-30T13:13:28.916Z,1404
2016-11-30T13:14:29.629Z,1480
2016-11-30T13:15:30.332Z,1720
2016-11-30T13:16:31.186Z,2016
2016-11-30T13:17:31.988Z,1500
2016-11-30T13:18:32.594Z,1180
2016-11-30T13:19:33.386Z,1440
2016-11-30T13:20:34.193Z,1584
2016-11-30T13:21:34.976Z,1280
2016-11-30T13:22:35.646Z,1388
2016-11-30T13:23:36.537Z,1312
2016-11-30T13:24:37.430Z,1492
2016-11-30T13:25:38.323Z,1508
2016-11-30T13:26:39.088Z,1652
2016-11-30T13:27:39.740Z,1616
2016-11-30T13:28:40.416Z,1400
2016-11-30T13:29:41.337Z,1356
2016-11-30T13:30:41.943Z,1384
2016-11-30T13:31:42.647Z,1132
2016-11-30T13:32:43.507Z,940
2016-11-30T13:33:44.197Z,736
2016-11-30T13:34:44.874Z,1104
2016-11-30T13:35:45.724Z,924
2016-11-30T13:36:46.497Z,816
2016-11-30T13:37:47.272Z,856
2016-11-30T13:38:48.086Z,764
2016-11-30T13:39:48.922Z,628
2016-11-30T13:40:49.595Z,780
2016-11-30T13:41:50.333Z,840
2016-11-30T13:42:51.291Z,976
2016-11-30T13:43:52.020Z,964
2016-11-30T13:44:52.718Z,840
2016-11-30T13:45:53.418Z,1460
2016-11-30T13:46:54.193Z,1284
2016-11-30T13:47:55.008Z,880
2016-11-30T13:48:56.125Z,788
2016-11-30T13:49:56.956Z,1220
2016-11-30T13:50:57.828Z,1264
2016-11-30T13:51:58.617Z,1072
2016-11-30T13:52:59.401Z,1472
2016-11-30T13:54:00.227Z,1784
2016-11-30T13:55:01.064Z,1816
2016-11-30T13:56:01.795Z,1828
2016-11-30T13:57:02.468Z,1808
2016-11-30T13:58:03.172Z,1676
2016-11-30T13:59:04.086Z,1360
2016-11-30T14:00:04.873Z,1244
2016-11-30T14:01:05.570Z,1000
2016-11-30T14:02:06.566Z,880
2016-11-30T14:03:07.473Z,988
2016-11-30T14:04:08.263Z,920
2016-11-30T14:05:09.041Z,852
2016-11-30T14:06:09.807Z,1048
2016-11-30T14:07:10.579Z,1004
2016-11-30T14:08:11.418Z,912
2016-11-30T14:09:12.143Z,924
2016-11-30T14:10:12.883Z,872
2016-11-30T14:11:13.591Z,924
2016-11-30T14:12:14.260Z,904